sensor_id;sensor_type;location;lat;lon;timestamp;pressure;altitude;pressure_sealevel;temperature;humidity
73338;BME280;61575;49.908;35.556;2023-04-10T00:00:59;99948.97;;;7.78;66.55
73338;BME280;61575;49.908;35.556;2023-04-10T00:04:02;99945.44;;;7.78;66.17
73338;BME280;61575;49.908;35.556;2023-04-10T00:07:04;99953.75;;;7.75;66.14
73338;BME280;61575;49.908;35.556;2023-04-10T00:10:06;99951.34;;;7.72;66.05
73338;BME280;61575;49.908;35.556;2023-04-10T00:13:08;99947.13;;;7.69;65.68
73338;BME280;61575;49.908;35.556;2023-04-10T00:16:10;99957.13;;;7.67;65.73
73338;BME280;61575;49.908;35.556;2023-04-10T00:19:12;99955.16;;;7.69;65.58
73338;BME280;61575;49.908;35.556;2023-04-10T00:22:14;99946.28;;;7.69;65.41
73338;BME280;61575;49.908;35.556;2023-04-10T00:25:16;99956.28;;;7.66;65.57
73338;BME280;61575;49.908;35.556;2023-04-10T00:28:18;99952.91;;;7.64;65.79
73338;BME280;61575;49.908;35.556;2023-04-10T00:31:20;99952.34;;;7.61;65.49
73338;BME280;61575;49.908;35.556;2023-04-10T00:34:23;99948.53;;;7.63;65.60
73338;BME280;61575;49.908;35.556;2023-04-10T00:37:25;99951.50;;;7.60;65.30
73338;BME280;61575;49.908;35.556;2023-04-10T00:40:28;99958.41;;;7.63;65.37
73338;BME280;61575;49.908;35.556;2023-04-10T00:43:31;99962.91;;;7.62;64.85
73338;BME280;61575;49.908;35.556;2023-04-10T00:46:33;99954.75;;;7.64;64.54
73338;BME280;61575;49.908;35.556;2023-04-10T00:49:37;99947.56;;;7.64;64.63
73338;BME280;61575;49.908;35.556;2023-04-10T00:52:39;99960.34;;;7.61;64.23
73338;BME280;61575;49.908;35.556;2023-04-10T00:55:42;99956.44;;;7.65;64.19
73338;BME280;61575;49.908;35.556;2023-04-10T00:58:44;99956.56;;;7.63;63.88
73338;BME280;61575;49.908;35.556;2023-04-10T01:01:46;99957.13;;;7.67;63.69
73338;BME280;61575;49.908;35.556;2023-04-10T01:04:48;99944.75;;;7.66;63.53
73338;BME280;61575;49.908;35.556;2023-04-10T01:08:11;99948.41;;;7.65;63.24
73338;BME280;61575;49.908;35.556;2023-04-10T01:14:55;99946.84;;;7.62;63.53
73338;BME280;61575;49.908;35.556;2023-04-10T01:18:03;99946.84;;;7.62;63.35
73338;BME280;61575;49.908;35.556;2023-04-10T01:21:11;99942.50;;;7.61;63.48
73338;BME280;61575;49.908;35.556;2023-04-10T01:28:10;99950.38;;;7.53;63.52
73338;BME280;61575;49.908;35.556;2023-04-10T01:34:39;99947.84;;;7.52;63.49
73338;BME280;61575;49.908;35.556;2023-04-10T01:37:42;99942.78;;;7.49;63.75
73338;BME280;61575;49.908;35.556;2023-04-10T01:40:50;99945.44;;;7.49;63.53
73338;BME280;61575;49.908;35.556;2023-04-10T01:44:03;99941.94;;;7.48;63.54
73338;BME280;61575;49.908;35.556;2023-04-10T01:47:05;99951.91;;;7.46;63.25
73338;BME280;61575;49.908;35.556;2023-04-10T01:50:09;99937.84;;;7.44;63.54
73338;BME280;61575;49.908;35.556;2023-04-10T01:53:12;99943.59;;;7.40;63.47
73338;BME280;61575;49.908;35.556;2023-04-10T01:56:16;99941.34;;;7.35;63.59
73338;BME280;61575;49.908;35.556;2023-04-10T01:59:20;99945.28;;;7.31;63.71
73338;BME280;61575;49.908;35.556;2023-04-10T02:02:22;99945.00;;;7.24;64.15
73338;BME280;61575;49.908;35.556;2023-04-10T02:05:29;99946.94;;;7.22;64.48
73338;BME280;61575;49.908;35.556;2023-04-10T02:08:35;99953.38;;;7.20;64.40
73338;BME280;61575;49.908;35.556;2023-04-10T02:11:48;99950.00;;;7.18;64.08
73338;BME280;61575;49.908;35.556;2023-04-10T02:14:54;99959.28;;;7.14;63.85
73338;BME280;61575;49.908;35.556;2023-04-10T02:18:00;99955.06;;;7.11;63.88
73338;BME280;61575;49.908;35.556;2023-04-10T02:21:05;99951.53;;;7.11;63.86
73338;BME280;61575;49.908;35.556;2023-04-10T02:24:08;99954.34;;;7.09;63.59
73338;BME280;61575;49.908;35.556;2023-04-10T02:27:10;99959.13;;;7.06;63.81
73338;BME280;61575;49.908;35.556;2023-04-10T02:30:12;99968.38;;;7.01;63.51
73338;BME280;61575;49.908;35.556;2023-04-10T02:33:15;99960.78;;;6.97;63.68
73338;BME280;61575;49.908;35.556;2023-04-10T02:36:17;99963.84;;;6.92;64.05
73338;BME280;61575;49.908;35.556;2023-04-10T02:39:19;99964.28;;;6.88;64.28
73338;BME280;61575;49.908;35.556;2023-04-10T02:42:24;99971.00;;;6.82;64.63
73338;BME280;61575;49.908;35.556;2023-04-10T02:45:31;99971.41;;;6.78;64.43
73338;BME280;61575;49.908;35.556;2023-04-10T02:48:33;99971.53;;;6.76;64.00
73338;BME280;61575;49.908;35.556;2023-04-10T02:51:36;99969.41;;;6.70;64.67
73338;BME280;61575;49.908;35.556;2023-04-10T02:54:39;99967.00;;;6.67;63.85
73338;BME280;61575;49.908;35.556;2023-04-10T02:57:41;99970.50;;;6.67;63.93
73338;BME280;61575;49.908;35.556;2023-04-10T03:00:47;99969.94;;;6.64;63.96
73338;BME280;61575;49.908;35.556;2023-04-10T03:04:09;99979.44;;;6.57;63.96
73338;BME280;61575;49.908;35.556;2023-04-10T03:07:14;99980.16;;;6.59;64.18
73338;BME280;61575;49.908;35.556;2023-04-10T03:10:17;99976.06;;;6.55;64.29
73338;BME280;61575;49.908;35.556;2023-04-10T03:13:21;99979.72;;;6.54;64.56
73338;BME280;61575;49.908;35.556;2023-04-10T03:16:24;99981.81;;;6.50;64.77
73338;BME280;61575;49.908;35.556;2023-04-10T03:19:26;99988.13;;;6.49;64.86
73338;BME280;61575;49.908;35.556;2023-04-10T03:22:28;99987.28;;;6.49;64.87
73338;BME280;61575;49.908;35.556;2023-04-10T03:25:33;99980.50;;;6.45;65.22
73338;BME280;61575;49.908;35.556;2023-04-10T03:28:37;99983.03;;;6.46;65.54
73338;BME280;61575;49.908;35.556;2023-04-10T03:31:43;99982.06;;;6.47;65.71
73338;BME280;61575;49.908;35.556;2023-04-10T03:34:45;99987.16;;;6.50;65.56
73338;BME280;61575;49.908;35.556;2023-04-10T03:37:47;99983.50;;;6.51;65.39
73338;BME280;61575;49.908;35.556;2023-04-10T03:40:50;99992.66;;;6.58;65.84
73338;BME280;61575;49.908;35.556;2023-04-10T03:43:54;99982.31;;;6.65;65.25
73338;BME280;61575;49.908;35.556;2023-04-10T03:46:57;99986.84;;;6.74;65.07
73338;BME280;61575;49.908;35.556;2023-04-10T03:49:59;99986.03;;;6.83;64.50
73338;BME280;61575;49.908;35.556;2023-04-10T03:53:08;99980.72;;;6.93;64.00
73338;BME280;61575;49.908;35.556;2023-04-10T03:56:11;99986.09;;;7.02;63.41
73338;BME280;61575;49.908;35.556;2023-04-10T03:59:13;99984.47;;;7.21;63.09
73338;BME280;61575;49.908;35.556;2023-04-10T04:02:15;99989.44;;;7.35;62.14
73338;BME280;61575;49.908;35.556;2023-04-10T04:05:18;99994.25;;;7.51;61.58
73338;BME280;61575;49.908;35.556;2023-04-10T04:08:40;99994.41;;;7.69;60.85
73338;BME280;61575;49.908;35.556;2023-04-10T04:11:45;99985.13;;;7.92;60.51
73338;BME280;61575;49.908;35.556;2023-04-10T04:15:06;99986.50;;;8.15;60.10
73338;BME280;61575;49.908;35.556;2023-04-10T04:18:25;99984.78;;;8.34;59.54
73338;BME280;61575;49.908;35.556;2023-04-10T04:21:43;99983.06;;;8.52;59.01
73338;BME280;61575;49.908;35.556;2023-04-10T04:25:04;99972.16;;;8.63;58.41
73338;BME280;61575;49.908;35.556;2023-04-10T04:28:41;99982.44;;;8.68;57.38
73338;BME280;61575;49.908;35.556;2023-04-10T04:32:02;99980.81;;;8.84;57.25
73338;BME280;61575;49.908;35.556;2023-04-10T04:35:23;99981.31;;;8.97;56.49
73338;BME280;61575;49.908;35.556;2023-04-10T04:38:42;99981.44;;;9.06;55.99
73338;BME280;61575;49.908;35.556;2023-04-10T04:42:02;99978.19;;;9.12;55.10
73338;BME280;61575;49.908;35.556;2023-04-10T04:45:25;99990.59;;;9.31;55.19
73338;BME280;61575;49.908;35.556;2023-04-10T04:48:50;99989.53;;;9.41;54.38
73338;BME280;61575;49.908;35.556;2023-04-10T04:51:58;99992.31;;;9.49;54.13
73338;BME280;61575;49.908;35.556;2023-04-10T04:55:10;99986.44;;;9.64;53.64
73338;BME280;61575;49.908;35.556;2023-04-10T04:58:40;99991.66;;;9.83;53.37
73338;BME280;61575;49.908;35.556;2023-04-10T05:01:46;99988.81;;;10.02;53.14
73338;BME280;61575;49.908;35.556;2023-04-10T05:05:27;99987.63;;;10.22;52.47
73338;BME280;61575;49.908;35.556;2023-04-10T05:08:49;99993.09;;;10.39;51.78
73338;BME280;61575;49.908;35.556;2023-04-10T05:12:14;99989.63;;;10.46;50.29
73338;BME280;61575;49.908;35.556;2023-04-10T05:15:34;99990.25;;;10.66;50.82
73338;BME280;61575;49.908;35.556;2023-04-10T05:18:46;99985.97;;;10.73;49.89
73338;BME280;61575;49.908;35.556;2023-04-10T05:22:13;99985.56;;;10.94;50.01
73338;BME280;61575;49.908;35.556;2023-04-10T05:25:45;99988.00;;;11.13;49.61
73338;BME280;61575;49.908;35.556;2023-04-10T05:29:10;99986.91;;;11.32;48.58
73338;BME280;61575;49.908;35.556;2023-04-10T05:32:17;99991.50;;;11.56;49.09
73338;BME280;61575;49.908;35.556;2023-04-10T05:35:36;100001.28;;;11.73;48.25
73338;BME280;61575;49.908;35.556;2023-04-10T05:38:57;99993.75;;;11.85;46.83
73338;BME280;61575;49.908;35.556;2023-04-10T05:42:09;100002.16;;;11.90;46.47
73338;BME280;61575;49.908;35.556;2023-04-10T05:45:24;100007.72;;;11.88;45.69
73338;BME280;61575;49.908;35.556;2023-04-10T05:48:46;99998.97;;;11.95;45.12
73338;BME280;61575;49.908;35.556;2023-04-10T05:52:06;100005.56;;;12.08;45.24
73338;BME280;61575;49.908;35.556;2023-04-10T05:55:23;100011.28;;;12.13;44.68
73338;BME280;61575;49.908;35.556;2023-04-10T05:58:40;100016.00;;;12.44;45.20
73338;BME280;61575;49.908;35.556;2023-04-10T06:01:56;100012.94;;;12.63;44.54
73338;BME280;61575;49.908;35.556;2023-04-10T06:04:58;100022.69;;;12.80;44.64
73338;BME280;61575;49.908;35.556;2023-04-10T06:08:00;100005.38;;;13.14;44.93
73338;BME280;61575;49.908;35.556;2023-04-10T06:11:02;100013.28;;;13.32;44.05
73338;BME280;61575;49.908;35.556;2023-04-10T06:14:05;100007.13;;;13.46;43.93
73338;BME280;61575;49.908;35.556;2023-04-10T06:17:13;100010.41;;;13.64;43.71
73338;BME280;61575;49.908;35.556;2023-04-10T06:20:15;100006.22;;;13.85;43.21
73338;BME280;61575;49.908;35.556;2023-04-10T06:23:17;100002.16;;;13.89;42.42
73338;BME280;61575;49.908;35.556;2023-04-10T06:26:19;100003.16;;;13.88;41.85
73338;BME280;61575;49.908;35.556;2023-04-10T06:29:22;99998.59;;;13.88;42.01
73338;BME280;61575;49.908;35.556;2023-04-10T06:32:24;99996.81;;;13.80;39.69
73338;BME280;61575;49.908;35.556;2023-04-10T06:35:26;99995.03;;;13.65;39.94
73338;BME280;61575;49.908;35.556;2023-04-10T06:38:29;99997.09;;;13.63;39.63
73338;BME280;61575;49.908;35.556;2023-04-10T06:41:31;99997.94;;;13.63;39.84
73338;BME280;61575;49.908;35.556;2023-04-10T06:44:53;99999.69;;;13.79;40.15
73338;BME280;61575;49.908;35.556;2023-04-10T06:47:55;99991.59;;;13.79;38.72
73338;BME280;61575;49.908;35.556;2023-04-10T06:50:57;100002.94;;;13.97;38.96
73338;BME280;61575;49.908;35.556;2023-04-10T06:54:01;100003.28;;;14.17;38.68
73338;BME280;61575;49.908;35.556;2023-04-10T06:57:03;99998.59;;;14.11;37.75
73338;BME280;61575;49.908;35.556;2023-04-10T07:00:06;100004.19;;;14.09;37.04
73338;BME280;61575;49.908;35.556;2023-04-10T07:03:08;99992.59;;;14.24;36.91
73338;BME280;61575;49.908;35.556;2023-04-10T07:06:10;99999.13;;;14.29;36.85
73338;BME280;61575;49.908;35.556;2023-04-10T07:09:12;99997.94;;;14.32;37.28
73338;BME280;61575;49.908;35.556;2023-04-10T07:12:15;100002.06;;;14.57;37.11
73338;BME280;61575;49.908;35.556;2023-04-10T07:15:17;99996.50;;;14.59;35.82
73338;BME280;61575;49.908;35.556;2023-04-10T07:18:19;99992.84;;;14.52;36.08
73338;BME280;61575;49.908;35.556;2023-04-10T07:21:20;99984.13;;;14.79;36.67
73338;BME280;61575;49.908;35.556;2023-04-10T07:24:23;99993.34;;;14.99;36.18
73338;BME280;61575;49.908;35.556;2023-04-10T07:27:25;99993.72;;;15.11;36.32
73338;BME280;61575;49.908;35.556;2023-04-10T07:30:27;99986.31;;;15.34;35.96
73338;BME280;61575;49.908;35.556;2023-04-10T07:33:29;100001.16;;;15.24;34.61
73338;BME280;61575;49.908;35.556;2023-04-10T07:36:31;99998.38;;;15.32;34.26
73338;BME280;61575;49.908;35.556;2023-04-10T07:39:33;99992.31;;;15.15;33.99
73338;BME280;61575;49.908;35.556;2023-04-10T07:42:35;100004.59;;;15.47;34.86
73338;BME280;61575;49.908;35.556;2023-04-10T07:45:37;99987.06;;;15.43;34.15
73338;BME280;61575;49.908;35.556;2023-04-10T07:48:39;99992.41;;;15.72;34.54
73338;BME280;61575;49.908;35.556;2023-04-10T07:51:41;99987.59;;;15.89;33.72
73338;BME280;61575;49.908;35.556;2023-04-10T07:54:43;99991.28;;;16.03;33.86
73338;BME280;61575;49.908;35.556;2023-04-10T07:57:45;99983.53;;;16.21;33.50
73338;BME280;61575;49.908;35.556;2023-04-10T08:00:47;99980.31;;;16.11;32.50
73338;BME280;61575;49.908;35.556;2023-04-10T08:03:49;99982.56;;;15.86;31.39
73338;BME280;61575;49.908;35.556;2023-04-10T08:06:52;99986.44;;;15.77;31.91
73338;BME280;61575;49.908;35.556;2023-04-10T08:09:54;99975.41;;;15.79;32.46
73338;BME280;61575;49.908;35.556;2023-04-10T08:12:56;99973.09;;;15.97;32.88
73338;BME280;61575;49.908;35.556;2023-04-10T08:15:58;99970.44;;;16.25;32.71
73338;BME280;61575;49.908;35.556;2023-04-10T08:19:01;99971.91;;;16.55;32.87
73338;BME280;61575;49.908;35.556;2023-04-10T08:22:03;99960.78;;;16.72;32.30
73338;BME280;61575;49.908;35.556;2023-04-10T08:25:05;99952.97;;;16.90;31.46
73338;BME280;61575;49.908;35.556;2023-04-10T08:28:07;99951.38;;;17.02;31.98
73338;BME280;61575;49.908;35.556;2023-04-10T08:31:09;99948.84;;;17.00;30.87
73338;BME280;61575;49.908;35.556;2023-04-10T08:34:11;99944.13;;;17.16;31.49
73338;BME280;61575;49.908;35.556;2023-04-10T08:37:13;99951.91;;;16.84;30.11
73338;BME280;61575;49.908;35.556;2023-04-10T08:40:16;99949.06;;;16.64;30.77
73338;BME280;61575;49.908;35.556;2023-04-10T08:43:18;99942.81;;;17.05;31.41
73338;BME280;61575;49.908;35.556;2023-04-10T08:46:22;99938.66;;;17.09;30.99
73338;BME280;61575;49.908;35.556;2023-04-10T08:52:45;99943.34;;;17.28;30.63
73338;BME280;61575;49.908;35.556;2023-04-10T08:55:47;99924.72;;;17.19;29.97
73338;BME280;61575;49.908;35.556;2023-04-10T08:58:50;99935.13;;;17.09;29.76
73338;BME280;61575;49.908;35.556;2023-04-10T09:01:52;99936.78;;;17.10;29.80
73338;BME280;61575;49.908;35.556;2023-04-10T09:04:57;99929.47;;;17.03;30.10
73338;BME280;61575;49.908;35.556;2023-04-10T09:08:01;99935.78;;;17.17;30.24
73338;BME280;61575;49.908;35.556;2023-04-10T09:11:04;99933.28;;;17.16;29.42
73338;BME280;61575;49.908;35.556;2023-04-10T09:14:19;99925.63;;;17.39;30.04
73338;BME280;61575;49.908;35.556;2023-04-10T09:17:23;99928.88;;;17.69;30.67
73338;BME280;61575;49.908;35.556;2023-04-10T09:20:26;99932.03;;;17.92;29.94
73338;BME280;61575;49.908;35.556;2023-04-10T09:23:29;99924.31;;;17.89;29.60
73338;BME280;61575;49.908;35.556;2023-04-10T09:26:31;99928.72;;;18.10;29.85
73338;BME280;61575;49.908;35.556;2023-04-10T09:29:41;99919.31;;;18.13;28.97
73338;BME280;61575;49.908;35.556;2023-04-10T09:32:44;99924.75;;;18.06;29.59
73338;BME280;61575;49.908;35.556;2023-04-10T09:35:49;99922.03;;;18.06;29.25
73338;BME280;61575;49.908;35.556;2023-04-10T09:38:51;99914.91;;;18.05;29.64
73338;BME280;61575;49.908;35.556;2023-04-10T09:41:55;99915.75;;;18.06;29.44
73338;BME280;61575;49.908;35.556;2023-04-10T09:44:57;99913.25;;;18.24;30.71
73338;BME280;61575;49.908;35.556;2023-04-10T09:48:05;99913.22;;;18.37;30.47
73338;BME280;61575;49.908;35.556;2023-04-10T09:51:27;99912.00;;;18.46;29.02
73338;BME280;61575;49.908;35.556;2023-04-10T09:54:35;99902.13;;;18.39;29.07
73338;BME280;61575;49.908;35.556;2023-04-10T09:57:38;99893.16;;;18.51;29.11
73338;BME280;61575;49.908;35.556;2023-04-10T10:00:49;99886.66;;;18.39;29.82
73338;BME280;61575;49.908;35.556;2023-04-10T10:03:53;99888.34;;;18.47;28.80
73338;BME280;61575;49.908;35.556;2023-04-10T10:06:56;99891.06;;;18.53;29.24
73338;BME280;61575;49.908;35.556;2023-04-10T10:09:59;99893.94;;;18.72;28.96
73338;BME280;61575;49.908;35.556;2023-04-10T10:13:03;99889.28;;;18.85;28.57
73338;BME280;61575;49.908;35.556;2023-04-10T10:16:19;99879.97;;;18.55;28.42
73338;BME280;61575;49.908;35.556;2023-04-10T10:23:02;99882.47;;;18.37;29.16
73338;BME280;61575;49.908;35.556;2023-04-10T10:26:05;99869.09;;;18.35;29.09
73338;BME280;61575;49.908;35.556;2023-04-10T10:29:07;99878.94;;;18.49;28.28
73338;BME280;61575;49.908;35.556;2023-04-10T10:32:16;99874.13;;;18.31;28.38
73338;BME280;61575;49.908;35.556;2023-04-10T10:35:18;99875.38;;;18.22;28.81
73338;BME280;61575;49.908;35.556;2023-04-10T10:38:21;99873.69;;;18.35;29.06
73338;BME280;61575;49.908;35.556;2023-04-10T10:41:34;99872.22;;;18.52;28.78
73338;BME280;61575;49.908;35.556;2023-04-10T10:44:47;99859.84;;;18.69;29.03
73338;BME280;61575;49.908;35.556;2023-04-10T10:47:53;99862.56;;;18.69;28.44
73338;BME280;61575;49.908;35.556;2023-04-10T10:50:57;99863.16;;;18.78;28.73
73338;BME280;61575;49.908;35.556;2023-04-10T10:53:59;99856.41;;;18.87;29.15
73338;BME280;61575;49.908;35.556;2023-04-10T10:57:02;99858.13;;;18.81;28.59
73338;BME280;61575;49.908;35.556;2023-04-10T11:00:07;99856.91;;;18.71;28.96
73338;BME280;61575;49.908;35.556;2023-04-10T11:06:14;99854.56;;;18.81;28.38
73338;BME280;61575;49.908;35.556;2023-04-10T11:09:46;99853.19;;;18.52;28.14
73338;BME280;61575;49.908;35.556;2023-04-10T11:13:14;99848.38;;;18.54;28.61
73338;BME280;61575;49.908;35.556;2023-04-10T11:16:20;99855.06;;;18.51;28.14
73338;BME280;61575;49.908;35.556;2023-04-10T11:19:23;99842.94;;;18.34;29.23
73338;BME280;61575;49.908;35.556;2023-04-10T11:22:27;99833.75;;;18.35;28.48
73338;BME280;61575;49.908;35.556;2023-04-10T11:25:49;99840.66;;;18.31;28.40
73338;BME280;61575;49.908;35.556;2023-04-10T11:28:53;99827.53;;;18.02;27.79
73338;BME280;61575;49.908;35.556;2023-04-10T11:31:57;99818.31;;;18.09;28.58
73338;BME280;61575;49.908;35.556;2023-04-10T11:34:59;99824.34;;;18.24;28.85
73338;BME280;61575;49.908;35.556;2023-04-10T11:38:23;99828.09;;;18.30;29.18
73338;BME280;61575;49.908;35.556;2023-04-10T11:41:33;99825.00;;;18.20;28.62
73338;BME280;61575;49.908;35.556;2023-04-10T11:44:35;99822.03;;;18.35;28.89
73338;BME280;61575;49.908;35.556;2023-04-10T11:47:40;99827.03;;;18.38;28.70
73338;BME280;61575;49.908;35.556;2023-04-10T11:50:42;99825.38;;;18.43;28.35
73338;BME280;61575;49.908;35.556;2023-04-10T11:53:44;99814.31;;;18.31;28.59
73338;BME280;61575;49.908;35.556;2023-04-10T11:57:05;99813.66;;;18.36;27.95
73338;BME280;61575;49.908;35.556;2023-04-10T12:00:10;99811.16;;;18.35;28.57
73338;BME280;61575;49.908;35.556;2023-04-10T12:03:12;99806.56;;;18.35;28.71
73338;BME280;61575;49.908;35.556;2023-04-10T12:06:15;99800.50;;;18.33;28.86
73338;BME280;61575;49.908;35.556;2023-04-10T12:09:18;99801.16;;;18.15;28.10
73338;BME280;61575;49.908;35.556;2023-04-10T12:12:33;99796.53;;;18.42;28.74
73338;BME280;61575;49.908;35.556;2023-04-10T12:15:36;99799.44;;;18.34;28.63
73338;BME280;61575;49.908;35.556;2023-04-10T12:18:39;99788.59;;;18.27;28.86
73338;BME280;61575;49.908;35.556;2023-04-10T12:21:41;99788.56;;;18.34;29.18
73338;BME280;61575;49.908;35.556;2023-04-10T12:24:45;99784.19;;;18.26;28.72
73338;BME280;61575;49.908;35.556;2023-04-10T12:27:48;99780.63;;;18.32;28.06
73338;BME280;61575;49.908;35.556;2023-04-10T12:30:51;99786.25;;;18.38;28.30
73338;BME280;61575;49.908;35.556;2023-04-10T12:33:54;99776.03;;;18.33;28.50
73338;BME280;61575;49.908;35.556;2023-04-10T12:36:58;99773.31;;;18.33;28.51
73338;BME280;61575;49.908;35.556;2023-04-10T12:40:06;99777.94;;;18.26;28.30
73338;BME280;61575;49.908;35.556;2023-04-10T12:43:08;99781.88;;;18.30;28.61
73338;BME280;61575;49.908;35.556;2023-04-10T12:46:22;99770.34;;;18.41;28.90
73338;BME280;61575;49.908;35.556;2023-04-10T12:49:24;99773.97;;;18.22;28.76
73338;BME280;61575;49.908;35.556;2023-04-10T12:52:26;99770.84;;;18.12;28.71
73338;BME280;61575;49.908;35.556;2023-04-10T12:55:28;99761.03;;;18.11;29.03
73338;BME280;61575;49.908;35.556;2023-04-10T12:58:30;99762.31;;;17.95;28.95
73338;BME280;61575;49.908;35.556;2023-04-10T13:01:33;99754.78;;;17.90;28.06
73338;BME280;61575;49.908;35.556;2023-04-10T13:04:35;99755.03;;;17.76;28.90
73338;BME280;61575;49.908;35.556;2023-04-10T13:07:37;99755.44;;;17.79;29.19
73338;BME280;61575;49.908;35.556;2023-04-10T13:10:40;99742.69;;;17.80;29.14
73338;BME280;61575;49.908;35.556;2023-04-10T13:13:44;99747.28;;;17.79;29.34
73338;BME280;61575;49.908;35.556;2023-04-10T13:16:46;99747.72;;;17.63;29.67
73338;BME280;61575;49.908;35.556;2023-04-10T13:19:49;99748.13;;;17.66;29.83
73338;BME280;61575;49.908;35.556;2023-04-10T13:22:51;99741.25;;;17.51;29.72
73338;BME280;61575;49.908;35.556;2023-04-10T13:25:53;99731.41;;;17.43;30.02
73338;BME280;61575;49.908;35.556;2023-04-10T13:28:58;99723.25;;;17.37;30.13
73338;BME280;61575;49.908;35.556;2023-04-10T13:32:01;99736.41;;;17.40;29.88
73338;BME280;61575;49.908;35.556;2023-04-10T13:35:06;99733.47;;;17.08;29.63
73338;BME280;61575;49.908;35.556;2023-04-10T13:38:08;99730.78;;;17.21;30.11
73338;BME280;61575;49.908;35.556;2023-04-10T13:41:12;99725.97;;;17.30;30.00
73338;BME280;61575;49.908;35.556;2023-04-10T13:44:14;99728.47;;;17.31;29.75
73338;BME280;61575;49.908;35.556;2023-04-10T13:47:16;99731.00;;;17.26;29.44
73338;BME280;61575;49.908;35.556;2023-04-10T13:50:17;99731.81;;;17.27;29.83
73338;BME280;61575;49.908;35.556;2023-04-10T13:53:19;99726.38;;;17.20;29.40
73338;BME280;61575;49.908;35.556;2023-04-10T13:56:21;99724.72;;;17.19;29.75
73338;BME280;61575;49.908;35.556;2023-04-10T13:59:23;99720.53;;;17.03;29.82
73338;BME280;61575;49.908;35.556;2023-04-10T14:02:25;99727.19;;;17.01;29.60
73338;BME280;61575;49.908;35.556;2023-04-10T14:05:27;99715.50;;;16.87;29.79
73338;BME280;61575;49.908;35.556;2023-04-10T14:08:29;99719.84;;;16.75;29.94
73338;BME280;61575;49.908;35.556;2023-04-10T14:11:32;99719.19;;;16.66;30.21
73338;BME280;61575;49.908;35.556;2023-04-10T14:14:34;99713.19;;;16.78;30.40
73338;BME280;61575;49.908;35.556;2023-04-10T14:17:36;99715.91;;;16.91;30.68
73338;BME280;61575;49.908;35.556;2023-04-10T14:20:38;99716.56;;;17.06;30.34
73338;BME280;61575;49.908;35.556;2023-04-10T14:23:42;99712.59;;;17.02;30.19
73338;BME280;61575;49.908;35.556;2023-04-10T14:26:44;99712.38;;;16.97;30.36
73338;BME280;61575;49.908;35.556;2023-04-10T14:29:47;99710.25;;;16.79;30.08
73338;BME280;61575;49.908;35.556;2023-04-10T14:32:55;99717.13;;;16.75;30.30
73338;BME280;61575;49.908;35.556;2023-04-10T14:35:58;99717.94;;;16.62;30.51
73338;BME280;61575;49.908;35.556;2023-04-10T14:39:00;99717.88;;;16.49;30.61
73338;BME280;61575;49.908;35.556;2023-04-10T14:42:02;99715.34;;;16.41;31.04
73338;BME280;61575;49.908;35.556;2023-04-10T14:45:04;99724.13;;;16.50;31.14
73338;BME280;61575;49.908;35.556;2023-04-10T14:48:07;99715.53;;;16.39;30.48
73338;BME280;61575;49.908;35.556;2023-04-10T14:51:09;99708.63;;;16.30;30.85
73338;BME280;61575;49.908;35.556;2023-04-10T14:54:13;99710.25;;;16.25;31.13
73338;BME280;61575;49.908;35.556;2023-04-10T14:57:17;99696.03;;;16.10;30.62
73338;BME280;61575;49.908;35.556;2023-04-10T15:00:19;99696.19;;;16.01;30.86
73338;BME280;61575;49.908;35.556;2023-04-10T15:03:21;99695.28;;;15.88;31.01
73338;BME280;61575;49.908;35.556;2023-04-10T15:06:25;99686.03;;;15.76;31.22
73338;BME280;61575;49.908;35.556;2023-04-10T15:09:28;99693.66;;;15.59;31.02
73338;BME280;61575;49.908;35.556;2023-04-10T15:12:30;99697.69;;;15.48;31.42
73338;BME280;61575;49.908;35.556;2023-04-10T15:15:32;99693.63;;;15.31;31.31
73338;BME280;61575;49.908;35.556;2023-04-10T15:18:34;99708.72;;;15.19;31.44
73338;BME280;61575;49.908;35.556;2023-04-10T15:21:36;99693.84;;;15.08;31.32
73338;BME280;61575;49.908;35.556;2023-04-10T15:24:38;99699.19;;;15.01;31.39
73338;BME280;61575;49.908;35.556;2023-04-10T15:27:53;99693.28;;;14.91;31.67
73338;BME280;61575;49.908;35.556;2023-04-10T15:30:55;99695.38;;;14.74;32.68
73338;BME280;61575;49.908;35.556;2023-04-10T15:33:58;99698.88;;;14.68;32.91
73338;BME280;61575;49.908;35.556;2023-04-10T15:37:00;99692.81;;;14.66;32.81
73338;BME280;61575;49.908;35.556;2023-04-10T15:40:03;99687.91;;;14.55;32.48
73338;BME280;61575;49.908;35.556;2023-04-10T15:43:05;99695.50;;;14.45;32.37
73338;BME280;61575;49.908;35.556;2023-04-10T15:46:07;99689.56;;;14.35;32.40
73338;BME280;61575;49.908;35.556;2023-04-10T15:49:09;99690.31;;;14.29;32.69
73338;BME280;61575;49.908;35.556;2023-04-10T15:52:11;99692.47;;;14.19;32.70
73338;BME280;61575;49.908;35.556;2023-04-10T15:55:13;99687.81;;;14.12;32.99
73338;BME280;61575;49.908;35.556;2023-04-10T15:58:16;99689.97;;;14.02;33.10
73338;BME280;61575;49.908;35.556;2023-04-10T16:01:18;99689.25;;;13.94;33.20
73338;BME280;61575;49.908;35.556;2023-04-10T16:04:20;99697.16;;;13.80;33.55
73338;BME280;61575;49.908;35.556;2023-04-10T16:07:22;99698.09;;;13.73;34.00
73338;BME280;61575;49.908;35.556;2023-04-10T16:10:24;99691.09;;;13.64;34.32
73338;BME280;61575;49.908;35.556;2023-04-10T16:13:26;99686.81;;;13.55;34.46
73338;BME280;61575;49.908;35.556;2023-04-10T16:16:28;99690.16;;;13.42;34.72
73338;BME280;61575;49.908;35.556;2023-04-10T16:19:31;99686.88;;;13.32;34.90
73338;BME280;61575;49.908;35.556;2023-04-10T16:22:33;99676.69;;;13.19;35.19
73338;BME280;61575;49.908;35.556;2023-04-10T16:25:35;99679.47;;;13.11;35.23
73338;BME280;61575;49.908;35.556;2023-04-10T16:28:37;99682.59;;;13.00;35.16
73338;BME280;61575;49.908;35.556;2023-04-10T16:31:39;99686.00;;;12.94;35.68
73338;BME280;61575;49.908;35.556;2023-04-10T16:34:41;99684.41;;;12.84;35.92